Time;durP1;ratioP1;P1;durP2;ratioP2;P2;SDS_P1;SDS_P2;PMS_P1;PMS_P2;Temp;Humidity;BMP_temperature;BMP_pressure;BME280_temperature;BME280_humidity;BME280_pressure;Samples;Min_cycle;Max_cycle;Signal;HPM_P1;HPM_P2
2022/09/19 00:00:36;;;;;;;1.05;1.05;;;9.40;99.90;;;;;;4995680;28;20439;-36
2022/09/19 00:03:02;;;;;;;2.42;1.20;;;9.40;99.90;;;;;;4988900;28;20117;-36
2022/09/19 00:05:28;;;;;;;1.23;0.90;;;9.40;99.90;;;;;;4988524;28;20395;-37
2022/09/19 00:07:53;;;;;;;0.93;0.93;;;9.40;99.90;;;;;;4991979;28;20053;-38
2022/09/19 00:10:19;;;;;;;1.10;0.90;;;9.40;99.90;;;;;;4991155;28;20169;-35
2022/09/19 00:12:45;;;;;;;1.10;1.00;;;9.30;99.90;;;;;;4990673;28;20042;-34
2022/09/19 00:15:10;;;;;;;1.20;1.00;;;9.40;99.90;;;;;;4992431;28;20773;-33
2022/09/19 00:17:36;;;;;;;1.25;1.15;;;9.30;99.90;;;;;;4989112;28;20065;-37
2022/09/19 00:20:01;;;;;;;0.90;0.90;;;9.40;99.90;;;;;;4991196;28;20533;-37
2022/09/19 00:22:27;;;;;;;0.85;0.85;;;9.30;99.90;;;;;;4989720;28;20077;-37
2022/09/19 00:24:52;;;;;;;1.00;1.00;;;9.30;99.90;;;;;;4994637;28;20033;-38
2022/09/19 00:27:25;;;;;;;1.95;1.83;;;9.30;99.90;;;;;;4990760;28;20061;-39
2022/09/19 00:29:52;;;;;;;1.58;1.20;;;9.30;99.90;;;;;;4992170;28;21627;-39
2022/09/19 00:32:18;;;;;;;3.88;1.17;;;9.30;99.90;;;;;;4990831;28;20136;-30
2022/09/19 00:34:47;;;;;;;1.33;1.17;;;9.30;99.90;;;;;;4989260;28;20030;-37
2022/09/19 00:37:14;;;;;;;0.80;0.80;;;9.20;99.90;;;;;;4991604;28;20052;-38
2022/09/19 00:39:40;;;;;;;1.25;1.13;;;9.20;99.90;;;;;;4988893;28;20105;-38
2022/09/19 00:42:20;;;;;;;2.05;1.02;;;9.20;99.90;;;;;;4991459;28;20069;-34
2022/09/19 00:44:56;;;;;;;0.82;0.82;;;9.20;99.90;;;;;;4991808;28;20032;-39
2022/09/19 00:47:29;;;;;;;0.93;0.93;;;9.10;99.90;;;;;;4991272;28;20121;-39
2022/09/19 00:49:57;;;;;;;1.05;0.90;;;9.10;99.90;;;;;;4990409;28;20095;-39
2022/09/19 00:52:37;;;;;;;1.85;0.93;;;9.10;99.90;;;;;;4989660;28;20046;-38
2022/09/19 00:55:03;;;;;;;1.45;0.65;;;9.10;99.90;;;;;;4992590;28;20030;-38
2022/09/19 00:57:39;;;;;;;1.35;1.25;;;9.00;99.90;;;;;;4992060;28;20038;-34
2022/09/19 01:00:06;;;;;;;1.30;1.02;;;9.10;99.90;;;;;;4990965;28;20148;-39
2022/09/19 01:02:32;;;;;;;0.70;0.70;;;9.00;99.90;;;;;;4988166;28;20061;-32
2022/09/19 01:05:00;;;;;;;1.23;1.13;;;9.00;99.90;;;;;;4992576;28;20028;-37
2022/09/19 01:08:07;;;;;;;0.65;0.65;;;8.90;99.90;;;;;;4989762;28;20042;-39
2022/09/19 01:11:04;;;;;;;1.00;0.70;;;8.90;99.90;;;;;;4992516;28;20065;-36
2022/09/19 01:13:46;;;;;;;0.82;0.60;;;8.90;99.90;;;;;;4985757;28;20049;-38
2022/09/19 01:16:20;;;;;;;0.77;0.68;;;8.90;99.90;;;;;;4989057;28;20480;-38
2022/09/19 01:19:02;;;;;;;1.38;0.70;;;8.90;99.90;;;;;;4994191;28;20018;-39
2022/09/19 01:21:40;;;;;;;0.40;0.40;;;8.80;99.90;;;;;;4995679;28;20057;-37
2022/09/19 01:24:17;;;;;;;0.70;0.68;;;8.80;99.90;;;;;;4991352;28;20485;-38
2022/09/19 01:27:05;;;;;;;0.43;0.43;;;8.80;99.90;;;;;;5001217;28;20095;-35
2022/09/19 01:30:00;;;;;;;0.80;0.80;;;8.80;99.90;;;;;;4990338;28;20124;-39
2022/09/19 01:32:33;;;;;;;0.47;0.47;;;8.80;99.90;;;;;;4996567;28;20052;-38
2022/09/19 01:35:03;;;;;;;0.60;0.60;;;8.70;99.90;;;;;;4994649;28;20034;-34
2022/09/19 01:37:43;;;;;;;0.60;0.60;;;8.70;99.90;;;;;;4995072;28;20030;-37
2022/09/19 01:40:11;;;;;;;0.43;0.43;;;8.70;99.90;;;;;;4994761;28;21599;-36
2022/09/19 01:42:48;;;;;;;0.63;0.63;;;8.70;99.90;;;;;;4996563;28;20368;-36
2022/09/19 01:45:14;;;;;;;0.73;0.60;;;8.60;99.90;;;;;;4991843;28;20028;-32
2022/09/19 01:47:50;;;;;;;0.68;0.68;;;8.60;99.90;;;;;;4995701;28;20034;-35
2022/09/19 01:50:53;;;;;;;1.02;0.90;;;8.50;99.90;;;;;;4998031;28;20133;-33
2022/09/19 01:53:34;;;;;;;1.55;0.70;;;8.50;99.90;;;;;;4993812;28;20109;-36
2022/09/19 01:56:18;;;;;;;0.40;0.40;;;8.40;99.90;;;;;;4992468;28;20042;-36
2022/09/19 01:59:07;;;;;;;0.77;0.77;;;8.40;99.90;;;;;;4990538;28;20444;-38
2022/09/19 02:01:57;;;;;;;0.47;0.47;;;8.30;99.90;;;;;;4992219;28;20030;-39
2022/09/19 02:04:34;;;;;;;1.30;1.25;;;8.30;99.90;;;;;;4988499;28;20080;-37
2022/09/19 02:07:32;;;;;;;0.60;0.60;;;8.20;99.90;;;;;;4989423;28;20049;-36
2022/09/19 02:10:00;;;;;;;;;;;8.20;99.90;;;;;;4991007;28;20033;-36
2022/09/19 02:12:31;;;;;;;0.63;0.60;;;8.10;99.90;;;;;;4995507;28;19928;-37
2022/09/19 02:15:00;;;;;;;0.30;0.30;;;8.10;99.90;;;;;;4990062;28;20476;-38
2022/09/19 02:17:33;;;;;;;0.43;0.43;;;8.10;99.90;;;;;;4989655;28;20042;-38
2022/09/19 02:20:02;;;;;;;0.50;0.50;;;8.00;99.90;;;;;;4996670;28;20031;-38
2022/09/19 02:22:31;;;;;;;0.40;0.40;;;8.00;99.90;;;;;;4990942;28;20038;-38
2022/09/19 02:25:05;;;;;;;1.13;0.52;;;7.90;99.90;;;;;;4993338;28;20428;-34
2022/09/19 02:27:38;;;;;;;0.40;0.40;;;8.00;99.90;;;;;;4988150;28;20038;-38
2022/09/19 02:30:08;;;;;;;0.40;0.40;;;7.90;99.90;;;;;;4988444;28;20075;-39
2022/09/19 02:32:38;;;;;;;0.55;0.40;;;7.90;99.90;;;;;;4995328;28;20498;-38
2022/09/19 02:35:05;;;;;;;0.45;0.45;;;7.90;99.90;;;;;;4985860;28;20029;-39
2022/09/19 02:37:55;;;;;;;1.35;0.60;;;7.80;99.90;;;;;;4992301;28;20483;-39
2022/09/19 02:40:38;;;;;;;0.35;0.35;;;7.70;99.90;;;;;;4986385;28;20400;-36
2022/09/19 02:43:36;;;;;;;0.38;0.38;;;7.70;99.90;;;;;;4987673;28;20023;-36
2022/09/19 02:46:49;;;;;;;0.30;0.30;;;7.60;99.90;;;;;;4987457;28;20038;-39
2022/09/19 02:49:22;;;;;;;0.38;0.38;;;7.60;99.90;;;;;;4988990;28;20048;-34
2022/09/19 02:51:57;;;;;;;0.40;0.40;;;7.50;99.90;;;;;;4992243;28;20046;-38
2022/09/19 02:54:31;;;;;;;0.30;0.30;;;7.40;99.90;;;;;;4986216;28;20084;-38
2022/09/19 02:57:01;;;;;;;0.40;0.40;;;7.40;99.90;;;;;;4988606;28;20037;-37
2022/09/19 02:59:36;;;;;;;3.13;0.40;;;7.40;99.90;;;;;;4988791;28;20039;-35
2022/09/19 03:02:09;;;;;;;1.08;0.40;;;7.30;99.90;;;;;;4992007;28;20042;-37
2022/09/19 03:04:42;;;;;;;0.40;0.40;;;7.30;99.90;;;;;;4995182;28;20922;-36
2022/09/19 03:07:27;;;;;;;0.98;0.50;;;7.30;99.90;;;;;;4993049;28;20034;-39
2022/09/19 03:10:07;;;;;;;1.05;0.50;;;7.20;99.90;;;;;;4990040;28;20089;-36
2022/09/19 03:12:58;;;;;;;1.75;0.57;;;7.20;99.90;;;;;;4998217;28;20114;-38
2022/09/19 03:15:40;;;;;;;0.60;0.60;;;7.30;99.90;;;;;;4996423;28;20080;-39
2022/09/19 03:18:09;;;;;;;1.10;0.50;;;7.30;99.90;;;;;;4998530;28;20340;-38
2022/09/19 03:20:39;;;;;;;0.50;0.50;;;7.20;99.90;;;;;;4994638;28;20378;-35
2022/09/19 03:23:07;;;;;;;0.45;0.45;;;7.10;99.90;;;;;;4997156;28;20073;-36
2022/09/19 03:25:33;;;;;;;0.40;0.40;;;7.10;99.90;;;;;;4997423;28;20026;-36
2022/09/19 03:27:59;;;;;;;0.43;0.43;;;7.10;99.90;;;;;;4994372;28;20060;-37
2022/09/19 03:30:24;;;;;;;0.32;0.32;;;7.00;99.90;;;;;;4997753;28;20037;-38
2022/09/19 03:32:50;;;;;;;1.65;0.93;;;6.90;99.90;;;;;;4998632;28;20534;-38
2022/09/19 03:35:16;;;;;;;0.82;0.50;;;6.90;99.90;;;;;;4992940;28;20117;-39
2022/09/19 03:37:42;;;;;;;2.05;0.50;;;6.90;99.90;;;;;;4991325;28;20502;-39
2022/09/19 03:40:08;;;;;;;0.68;0.68;;;6.90;99.90;;;;;;4997075;28;20124;-33
2022/09/19 03:42:34;;;;;;;0.40;0.40;;;6.90;99.90;;;;;;4992616;28;20030;-38
2022/09/19 03:45:01;;;;;;;0.73;0.50;;;6.90;99.90;;;;;;4995243;28;20022;-33
2022/09/19 03:47:27;;;;;;;0.75;0.30;;;7.00;99.90;;;;;;4993583;28;20057;-38
2022/09/19 03:49:53;;;;;;;1.70;0.70;;;6.80;99.90;;;;;;4996231;28;20065;-39
2022/09/19 03:52:19;;;;;;;0.70;0.50;;;6.80;99.90;;;;;;4995954;28;20540;-38
2022/09/19 03:54:45;;;;;;;0.40;0.40;;;6.80;99.90;;;;;;4993341;28;20102;-37
2022/09/19 03:57:12;;;;;;;1.98;0.60;;;6.80;99.90;;;;;;4991639;28;20081;-36
2022/09/19 03:59:39;;;;;;;0.88;0.50;;;6.80;99.90;;;;;;4991552;28;20108;-35
2022/09/19 04:02:06;;;;;;;0.40;0.35;;;6.90;99.90;;;;;;4995507;28;20492;-39
2022/09/19 04:04:32;;;;;;;1.70;0.55;;;6.80;99.90;;;;;;4992443;28;20436;-39
2022/09/19 04:06:58;;;;;;;0.70;0.70;;;6.80;99.90;;;;;;4989728;28;20033;-38
2022/09/19 04:09:25;;;;;;;1.52;0.60;;;6.90;99.90;;;;;;4994686;28;20377;-34
2022/09/19 04:11:51;;;;;;;0.50;0.50;;;6.90;99.90;;;;;;4995151;28;20026;-35
2022/09/19 04:14:17;;;;;;;0.75;0.40;;;7.00;99.90;;;;;;4995014;28;20180;-39
2022/09/19 04:16:43;;;;;;;0.50;0.50;;;7.00;99.90;;;;;;4998519;28;20034;-38
2022/09/19 04:19:09;;;;;;;0.65;0.52;;;7.00;99.90;;;;;;4998001;28;20042;-37
2022/09/19 04:21:35;;;;;;;0.50;0.50;;;7.10;99.90;;;;;;4994466;28;20022;-38
2022/09/19 04:24:01;;;;;;;1.08;0.90;;;7.10;99.90;;;;;;4994986;28;20435;-36
2022/09/19 04:26:27;;;;;;;1.05;0.60;;;7.20;99.90;;;;;;4991811;28;20366;-37
2022/09/19 04:28:52;;;;;;;1.70;0.80;;;7.20;99.90;;;;;;4993917;28;20506;-39
2022/09/19 04:31:18;;;;;;;1.33;0.70;;;7.30;99.90;;;;;;4991217;28;20034;-38
2022/09/19 04:33:44;;;;;;;1.17;0.50;;;7.20;99.90;;;;;;5001717;28;20048;-31
2022/09/19 04:36:10;;;;;;;0.50;0.50;;;7.20;99.90;;;;;;4995269;28;20086;-38
2022/09/19 04:38:36;;;;;;;1.88;0.60;;;7.30;99.90;;;;;;4994888;28;20032;-38
2022/09/19 04:41:02;;;;;;;1.00;0.70;;;7.20;99.90;;;;;;4994909;28;21296;-38
2022/09/19 04:43:29;;;;;;;1.65;0.75;;;7.20;99.90;;;;;;4998140;28;20730;-36
2022/09/19 04:45:55;;;;;;;2.33;0.55;;;7.20;99.90;;;;;;4995232;28;20045;-38
2022/09/19 04:48:23;;;;;;;2.20;0.70;;;7.10;99.90;;;;;;4991043;28;20606;-38
2022/09/19 04:50:50;;;;;;;0.63;0.40;;;7.10;99.90;;;;;;4990627;28;20038;-33
2022/09/19 04:53:24;;;;;;;1.43;0.57;;;7.10;99.90;;;;;;4994035;28;20046;-39
2022/09/19 04:55:51;;;;;;;1.98;0.45;;;7.10;99.90;;;;;;4996301;28;20022;-34
2022/09/19 04:58:18;;;;;;;0.50;0.50;;;7.10;99.90;;;;;;4991716;28;20026;-38
2022/09/19 05:00:45;;;;;;;0.50;0.50;;;7.10;99.90;;;;;;4990166;28;20077;-37
2022/09/19 05:03:14;;;;;;;1.20;0.70;;;7.10;99.90;;;;;;4993275;28;20030;-39
2022/09/19 05:05:44;;;;;;;1.35;0.60;;;7.10;99.90;;;;;;4992835;28;20497;-36
2022/09/19 05:08:14;;;;;;;0.77;0.60;;;7.20;99.90;;;;;;4989389;28;20496;-38
2022/09/19 05:10:43;;;;;;;1.08;0.60;;;7.10;99.90;;;;;;4993336;28;20121;-37
2022/09/19 05:13:08;;;;;;;0.80;0.60;;;7.10;99.90;;;;;;4992531;28;20089;-38
2022/09/19 05:15:34;;;;;;;0.63;0.63;;;7.20;99.90;;;;;;4989930;28;20479;-34
2022/09/19 05:18:00;;;;;;;0.40;0.40;;;7.20;99.90;;;;;;4995771;28;20470;-38
2022/09/19 05:20:26;;;;;;;1.45;0.70;;;7.20;99.90;;;;;;4993248;28;20053;-40
2022/09/19 05:22:58;;;;;;;1.25;0.70;;;7.20;99.90;;;;;;4990757;28;20037;-38
2022/09/19 05:25:28;;;;;;;1.92;0.77;;;7.20;99.90;;;;;;4991403;28;20045;-38
2022/09/19 05:27:57;;;;;;;2.75;0.80;;;7.20;99.90;;;;;;4991748;28;20038;-39
2022/09/19 05:30:24;;;;;;;1.85;0.90;;;7.30;99.90;;;;;;4989041;28;20034;-39
2022/09/19 05:32:51;;;;;;;1.63;0.80;;;7.30;99.90;;;;;;4992827;28;20533;-38
2022/09/19 05:35:17;;;;;;;2.53;0.68;;;7.30;99.90;;;;;;4992051;28;20030;-37
2022/09/19 05:37:45;;;;;;;3.47;0.82;;;7.30;99.90;;;;;;4997216;28;20088;-39
2022/09/19 05:40:10;;;;;;;2.10;0.90;;;7.30;99.90;;;;;;4993809;28;20030;-36
2022/09/19 05:42:41;;;;;;;3.78;1.00;;;7.30;99.90;;;;;;4998166;28;20038;-37
2022/09/19 05:45:08;;;;;;;0.60;0.60;;;7.30;99.90;;;;;;4986980;28;20133;-39
2022/09/19 05:47:34;;;;;;;0.75;0.68;;;7.40;99.90;;;;;;4992683;28;20069;-39
2022/09/19 05:50:00;;;;;;;0.50;0.50;;;7.30;99.90;;;;;;4996762;28;20075;-39
2022/09/19 05:55:10;;;;;;;2.72;0.75;;;7.40;99.90;;;;;;4987219;28;20049;-36
2022/09/19 05:57:35;;;;;;;1.60;0.93;;;7.40;99.90;;;;;;4987469;28;20030;-37
2022/09/19 06:00:01;;;;;;;0.93;0.80;;;7.40;99.90;;;;;;4989382;28;20080;-35
2022/09/19 06:02:27;;;;;;;0.80;0.80;;;7.50;99.90;;;;;;4992105;28;20768;-38
2022/09/19 06:04:53;;;;;;;1.63;0.88;;;7.50;99.90;;;;;;4987944;28;20034;-33
2022/09/19 06:07:20;;;;;;;1.08;0.70;;;7.50;99.90;;;;;;4991102;28;20341;-35
2022/09/19 06:09:45;;;;;;;5.00;1.10;;;7.50;99.90;;;;;;4989748;28;20042;-34
2022/09/19 06:12:11;;;;;;;3.08;1.00;;;7.60;99.90;;;;;;4991196;28;20551;-34
2022/09/19 06:14:38;;;;;;;0.90;0.90;;;7.60;99.90;;;;;;4987464;28;20023;-37
2022/09/19 06:17:04;;;;;;;0.98;0.55;;;7.60;99.90;;;;;;4988857;28;20033;-37
2022/09/19 06:19:30;;;;;;;3.30;0.93;;;7.70;99.90;;;;;;4986794;28;20057;-39
2022/09/19 06:21:57;;;;;;;5.63;1.10;;;7.80;99.90;;;;;;4993459;28;20030;-39
2022/09/19 06:24:23;;;;;;;1.60;1.10;;;7.80;99.90;;;;;;4997192;28;21071;-38
2022/09/19 06:26:53;;;;;;;0.70;0.70;;;7.80;99.90;;;;;;4995417;28;20117;-37
2022/09/19 06:29:19;;;;;;;1.35;0.95;;;7.80;99.90;;;;;;5000957;28;20376;-37
2022/09/19 06:31:44;;;;;;;4.25;1.02;;;7.90;99.90;;;;;;5002714;28;20030;-39
2022/09/19 06:34:12;;;;;;;1.48;1.10;;;7.90;99.90;;;;;;4988542;28;20142;-38
2022/09/19 06:36:37;;;;;;;4.15;0.90;;;7.80;99.90;;;;;;4996214;28;20105;-37
2022/09/19 06:39:03;;;;;;;1.42;0.93;;;7.80;99.90;;;;;;4994347;28;20126;-33
2022/09/19 06:41:30;;;;;;;1.85;0.90;;;7.80;99.90;;;;;;4987525;28;20167;-35
2022/09/19 06:43:56;;;;;;;1.10;0.70;;;7.80;99.90;;;;;;5002884;28;20045;-37
2022/09/19 06:46:21;;;;;;;2.13;0.90;;;7.80;99.90;;;;;;4997408;28;20065;-39
2022/09/19 06:48:50;;;;;;;0.65;0.65;;;7.80;99.90;;;;;;4992966;28;20033;-38
2022/09/19 06:51:16;;;;;;;2.40;1.60;;;7.80;99.90;;;;;;4995398;28;20088;-36
2022/09/19 06:53:42;;;;;;;1.38;0.95;;;7.90;99.90;;;;;;4994234;28;20041;-34
2022/09/19 06:56:07;;;;;;;1.50;0.80;;;7.90;99.90;;;;;;4990112;28;20029;-36
2022/09/19 06:58:34;;;;;;;4.25;1.10;;;8.00;99.90;;;;;;4986580;28;20038;-38
2022/09/19 07:01:01;;;;;;;0.93;0.57;;;8.00;99.90;;;;;;5002337;28;20037;-37
2022/09/19 07:03:27;;;;;;;2.50;0.93;;;8.00;99.90;;;;;;4994927;28;20050;-34
2022/09/19 07:05:56;;;;;;;2.75;1.10;;;8.00;99.90;;;;;;5003351;28;20066;-37
2022/09/19 07:08:22;;;;;;;3.58;1.10;;;8.10;99.90;;;;;;4993084;28;20030;-36
2022/09/19 07:10:47;;;;;;;4.55;0.88;;;8.20;99.90;;;;;;4993854;28;20391;-39
2022/09/19 07:13:16;;;;;;;2.03;0.82;;;8.20;99.90;;;;;;4999527;28;20030;-36
2022/09/19 07:15:42;;;;;;;;;;;8.20;99.90;;;;;;4994694;28;20513;-35
2022/09/19 07:18:08;;;;;;;2.45;0.57;;;8.20;99.90;;;;;;4992716;28;19917;-38
2022/09/19 07:20:35;;;;;;;2.17;1.20;;;8.30;99.90;;;;;;4987434;28;20073;-37
2022/09/19 07:23:24;;;;;;;1.25;0.82;;;8.20;99.90;;;;;;4990288;28;20026;-39
2022/09/19 07:25:49;;;;;;;1.85;0.77;;;8.30;99.90;;;;;;4988653;28;20374;-30
2022/09/19 07:28:17;;;;;;;2.28;1.17;;;8.30;99.90;;;;;;4989996;28;20038;-39
2022/09/19 07:30:46;;;;;;;1.20;0.95;;;8.30;99.90;;;;;;4997972;28;20030;-39
2022/09/19 07:33:14;;;;;;;2.15;0.70;;;8.40;99.90;;;;;;4989300;28;20111;-37
2022/09/19 07:35:43;;;;;;;0.63;0.60;;;8.40;99.90;;;;;;4996018;28;20061;-32
2022/09/19 07:38:15;;;;;;;1.23;0.85;;;8.40;99.90;;;;;;4992035;28;20037;-37
2022/09/19 07:40:42;;;;;;;3.30;1.17;;;8.40;99.90;;;;;;4989389;28;20030;-36
2022/09/19 07:43:13;;;;;;;4.10;1.23;;;8.50;99.90;;;;;;4989947;28;20113;-37
2022/09/19 07:45:51;;;;;;;1.30;0.68;;;8.50;99.90;;;;;;4990809;28;20451;-34
2022/09/19 07:48:18;;;;;;;2.60;1.00;;;8.50;99.90;;;;;;4992479;28;20118;-38
2022/09/19 07:50:45;;;;;;;3.22;0.77;;;8.50;99.90;;;;;;4986809;28;20030;-37
2022/09/19 07:53:14;;;;;;;4.45;1.08;;;8.50;99.90;;;;;;4990538;28;20507;-36
2022/09/19 07:55:43;;;;;;;1.30;1.00;;;8.60;99.90;;;;;;4994486;28;20139;-36
2022/09/19 07:58:11;;;;;;;2.92;0.93;;;8.50;99.90;;;;;;4987577;28;20042;-37
2022/09/19 08:00:38;;;;;;;1.23;0.93;;;8.60;99.90;;;;;;4989319;28;20102;-37
2022/09/19 08:03:06;;;;;;;9.20;1.08;;;8.70;99.90;;;;;;4990182;28;20022;-36
2022/09/19 08:05:35;;;;;;;6.68;1.73;;;8.70;99.90;;;;;;4988744;28;20118;-31
2022/09/19 08:08:01;;;;;;;1.00;0.80;;;8.70;99.90;;;;;;4993903;28;20415;-35
2022/09/19 08:10:27;;;;;;;4.03;1.25;;;8.70;99.90;;;;;;4996309;28;20034;-39
2022/09/19 08:12:59;;;;;;;2.15;0.95;;;8.80;99.90;;;;;;4994494;28;20104;-32
2022/09/19 08:15:24;;;;;;;3.25;1.15;;;8.80;99.90;;;;;;4996261;28;20022;-37
2022/09/19 08:17:57;;;;;;;4.93;1.02;;;8.80;99.90;;;;;;4990355;28;20541;-35
2022/09/19 08:20:25;;;;;;;3.85;1.10;;;9.00;99.90;;;;;;5002074;28;20442;-38
2022/09/19 08:22:56;;;;;;;3.30;0.97;;;8.90;99.90;;;;;;5002159;28;20034;-33
2022/09/19 08:25:22;;;;;;;3.90;0.93;;;8.80;99.90;;;;;;4992813;28;20774;-37
2022/09/19 08:27:48;;;;;;;4.85;1.30;;;8.90;99.90;;;;;;4997353;28;20038;-39
2022/09/19 08:30:14;;;;;;;4.28;1.15;;;9.00;99.90;;;;;;4984487;28;20029;-37
2022/09/19 08:32:39;;;;;;;0.85;0.85;;;9.00;99.90;;;;;;4996500;28;20148;-39
2022/09/19 08:35:05;;;;;;;1.20;0.90;;;9.10;99.90;;;;;;4996269;28;20029;-37
2022/09/19 08:37:31;;;;;;;3.65;0.90;;;9.00;99.90;;;;;;4996380;28;20043;-37
2022/09/19 08:40:15;;;;;;;5.28;1.10;;;9.00;99.90;;;;;;4992420;28;20030;-39
2022/09/19 08:42:55;;;;;;;5.60;0.90;;;9.10;99.90;;;;;;4999026;28;20063;-39
2022/09/19 08:45:36;;;;;;;6.65;1.75;;;9.10;99.90;;;;;;4995247;28;20436;-35
2022/09/19 08:48:07;;;;;;;0.70;0.70;;;9.20;99.90;;;;;;4992439;28;20510;-38
2022/09/19 08:50:37;;;;;;;5.38;1.25;;;9.20;99.90;;;;;;4990563;28;20033;-37
2022/09/19 08:53:06;;;;;;;3.60;1.98;;;9.30;99.90;;;;;;4995970;28;20484;-38
2022/09/19 08:55:35;;;;;;;4.65;1.30;;;9.40;99.90;;;;;;4989314;28;20038;-36
2022/09/19 08:58:07;;;;;;;4.75;1.15;;;9.50;99.90;;;;;;4990976;28;20053;-35
2022/09/19 09:00:39;;;;;;;9.48;1.73;;;9.50;99.90;;;;;;4989030;28;20068;-37
2022/09/19 09:03:07;;;;;;;1.35;1.25;;;9.60;99.90;;;;;;4991159;28;20074;-35
2022/09/19 09:05:42;;;;;;;3.67;1.50;;;9.60;99.90;;;;;;4992869;28;20037;-34
2022/09/19 09:08:14;;;;;;;4.43;0.85;;;9.60;99.90;;;;;;4988762;28;20396;-39
2022/09/19 09:10:45;;;;;;;3.65;1.38;;;9.70;99.90;;;;;;4992118;28;20544;-34
2022/09/19 09:13:25;;;;;;;3.53;1.52;;;9.70;99.90;;;;;;4994073;28;20025;-34
2022/09/19 09:15:51;;;;;;;2.17;1.05;;;9.80;99.90;;;;;;4991170;28;20034;-36
2022/09/19 09:18:26;;;;;;;4.18;1.02;;;9.90;99.90;;;;;;4992847;28;20553;-38
2022/09/19 09:21:10;;;;;;;4.55;1.48;;;9.90;99.90;;;;;;4990041;28;20038;-36
2022/09/19 09:23:40;;;;;;;2.83;1.02;;;9.90;99.90;;;;;;4994050;28;20367;-38
2022/09/19 09:26:15;;;;;;;2.40;1.20;;;10.00;99.90;;;;;;4992961;28;20028;-38
2022/09/19 09:29:12;;;;;;;5.68;1.35;;;10.00;99.90;;;;;;4998387;28;20033;-38
2022/09/19 09:31:54;;;;;;;2.78;0.93;;;10.10;99.90;;;;;;4992969;28;20117;-35
2022/09/19 09:34:33;;;;;;;0.82;0.82;;;10.10;99.90;;;;;;4990558;28;20454;-38
2022/09/19 09:37:03;;;;;;;3.08;1.20;;;10.10;99.90;;;;;;4992521;28;20022;-34
2022/09/19 09:39:50;;;;;;;4.28;1.60;;;10.10;99.90;;;;;;4997372;28;20057;-39
2022/09/19 09:42:22;;;;;;;2.90;1.30;;;10.00;99.90;;;;;;4993033;28;20470;-34
2022/09/19 09:45:10;;;;;;;4.85;1.65;;;10.00;99.90;;;;;;4994969;28;20382;-38
2022/09/19 09:47:44;;;;;;;;;;;10.20;99.90;;;;;;4993563;28;20502;-35
2022/09/19 09:50:31;;;;;;;8.63;1.50;;;10.30;99.90;;;;;;4990579;28;20660;-34
2022/09/19 09:53:26;;;;;;;1.75;1.05;;;10.40;99.90;;;;;;4991954;28;20061;-38
2022/09/19 09:56:16;;;;;;;2.97;1.27;;;10.40;99.90;;;;;;4962167;28;20041;-37
2022/09/19 09:58:45;;;;;;;3.38;1.30;;;10.40;99.90;;;;;;4992822;28;20022;-38
2022/09/19 10:04:13;;;;;;;3.25;1.48;;;10.60;99.90;;;;;;5004089;28;20041;-38
2022/09/19 10:06:46;;;;;;;5.20;1.63;;;10.60;99.90;;;;;;4995196;28;20037;-36
2022/09/19 10:09:16;;;;;;;1.25;1.10;;;10.50;99.90;;;;;;4988417;28;20034;-35
2022/09/19 10:12:08;;;;;;;1.48;1.05;;;10.40;99.90;;;;;;5005355;28;20026;-38
2022/09/19 10:14:37;;;;;;;3.03;1.13;;;10.50;99.90;;;;;;4988052;28;20041;-31
2022/09/19 10:17:05;;;;;;;2.38;1.15;;;10.50;99.90;;;;;;4988952;28;20065;-36
2022/09/19 10:19:40;;;;;;;3.10;0.83;;;10.60;99.90;;;;;;4991541;28;20022;-37
2022/09/19 10:22:14;;;;;;;2.75;1.38;;;10.50;99.90;;;;;;4991700;28;20053;-35
2022/09/19 10:24:41;;;;;;;1.88;1.10;;;10.50;99.90;;;;;;4989366;28;20116;-36
2022/09/19 10:27:39;;;;;;;7.22;4.65;;;10.70;99.90;;;;;;4985499;28;20026;-32
2022/09/19 10:30:23;;;;;;;1.50;1.15;;;10.70;99.90;;;;;;4966099;28;20037;-34
2022/09/19 10:32:50;;;;;;;1.55;0.90;;;10.70;99.90;;;;;;4992712;28;20503;-36
2022/09/19 10:35:25;;;;;;;1.92;1.05;;;10.70;99.90;;;;;;4989950;28;20030;-36
2022/09/19 10:38:15;;;;;;;3.35;1.20;;;10.50;99.90;;;;;;4989612;28;20030;-38
2022/09/19 10:40:56;;;;;;;4.18;1.25;;;10.40;99.90;;;;;;4989733;28;20088;-34
2022/09/19 10:43:26;;;;;;;2.67;1.10;;;10.40;99.90;;;;;;4986461;28;20506;-31
2022/09/19 10:45:51;;;;;;;2.38;1.00;;;10.50;99.90;;;;;;4990527;28;20045;-32
2022/09/19 10:48:31;;;;;;;2.17;1.15;;;10.60;99.90;;;;;;4989755;28;20498;-33
2022/09/19 10:51:02;;;;;;;2.58;1.50;;;10.60;99.90;;;;;;4993295;28;20026;-35
2022/09/19 10:53:30;;;;;;;2.30;1.13;;;10.60;99.90;;;;;;4990270;28;20053;-39
2022/09/19 10:55:59;;;;;;;;;;;10.70;99.90;;;;;;4986531;28;20030;-35
2022/09/19 10:58:26;;;;;;;1.90;1.23;;;10.70;99.90;;;;;;4989188;28;19968;-38
2022/09/19 11:01:04;;;;;;;5.72;1.10;;;10.80;99.90;;;;;;4993220;28;20029;-38
2022/09/19 11:03:35;;;;;;;1.58;1.20;;;10.80;99.90;;;;;;4990336;28;20034;-37
2022/09/19 11:06:31;;;;;;;5.15;1.48;;;10.80;99.90;;;;;;4989502;28;20114;-36
2022/09/19 11:08:57;;;;;;;2.80;1.40;;;10.80;99.90;;;;;;4976811;28;20481;-38
2022/09/19 11:11:45;;;;;;;3.22;1.52;;;10.80;99.90;;;;;;4992469;28;20034;-38
2022/09/19 11:14:15;;;;;;;4.15;1.50;;;10.80;99.90;;;;;;4987383;28;20023;-35
2022/09/19 11:16:45;;;;;;;2.65;1.23;;;11.00;99.90;;;;;;4989351;28;20058;-37
2022/09/19 11:19:26;;;;;;;3.90;1.30;;;11.30;99.90;;;;;;4989061;28;20343;-36
2022/09/19 11:22:06;;;;;;;1.50;1.02;;;11.60;99.90;;;;;;4989970;28;20387;-38
2022/09/19 11:25:03;;;;;;;1.10;1.08;;;11.50;99.90;;;;;;4990463;28;20096;-31
2022/09/19 11:27:55;;;;;;;1.73;1.63;;;11.50;99.90;;;;;;4988530;28;20385;-37
2022/09/19 11:30:24;;;;;;;1.45;1.35;;;11.40;99.90;;;;;;4985458;28;20022;-34
2022/09/19 11:33:06;;;;;;;5.07;1.70;;;11.40;99.90;;;;;;4987709;28;20037;-33
2022/09/19 11:36:04;;;;;;;0.80;0.80;;;11.50;99.90;;;;;;4994771;28;20036;-38
2022/09/19 11:39:06;;;;;;;1.83;1.45;;;11.50;99.90;;;;;;4992427;28;20030;-37
2022/09/19 11:41:55;;;;;;;4.63;1.77;;;11.50;99.90;;;;;;4974829;28;20565;-38
2022/09/19 11:44:23;;;;;;;1.27;1.10;;;11.50;99.90;;;;;;4997414;28;20138;-38
2022/09/19 11:47:02;;;;;;;2.67;1.38;;;11.20;99.90;;;;;;4994926;28;20372;-36
2022/09/19 11:50:10;;;;;;;1.42;1.30;;;11.30;99.90;;;;;;4996334;28;20116;-34
2022/09/19 11:53:10;;;;;;;2.42;1.42;;;11.50;99.90;;;;;;4993373;28;20053;-38
2022/09/19 11:56:01;;;;;;;3.67;1.35;;;11.60;99.90;;;;;;4993115;28;20025;-37
2022/09/19 11:58:34;;;;;;;3.10;1.30;;;11.60;99.90;;;;;;4987184;28;20026;-38
2022/09/19 12:01:12;;;;;;;2.15;1.27;;;11.80;99.90;;;;;;4993694;28;20068;-39
2022/09/19 12:04:07;;;;;;;3.50;1.67;;;11.80;99.90;;;;;;4994985;28;20053;-37
2022/09/19 12:06:51;;;;;;;2.67;0.93;;;12.00;99.90;;;;;;4991548;28;20026;-36
2022/09/19 12:09:32;;;;;;;1.20;1.10;;;12.10;99.90;;;;;;4989663;28;20034;-38
2022/09/19 12:12:23;;;;;;;1.27;1.10;;;12.10;99.90;;;;;;4992465;28;20050;-30
2022/09/19 12:15:06;;;;;;;0.93;0.90;;;12.10;99.90;;;;;;4991289;28;20201;-33
2022/09/19 12:17:42;;;;;;;1.40;1.20;;;12.10;99.90;;;;;;4992197;28;20524;-39
2022/09/19 12:20:26;;;;;;;0.90;0.70;;;12.20;99.90;;;;;;4991556;28;20445;-34
2022/09/19 12:26:00;;;;;;;1.38;1.27;;;12.10;99.90;;;;;;4991177;28;20494;-33
2022/09/19 12:28:36;;;;;;;1.15;1.00;;;12.10;99.90;;;;;;4990523;28;20049;-38
2022/09/19 12:31:08;;;;;;;1.42;1.10;;;12.10;99.90;;;;;;4990728;28;20047;-38
2022/09/19 12:33:47;;;;;;;1.95;1.02;;;12.10;99.90;;;;;;4990220;28;20113;-38
2022/09/19 12:36:32;;;;;;;0.50;0.50;;;12.10;99.90;;;;;;4991917;28;20434;-35
2022/09/19 12:39:02;;;;;;;1.45;1.30;;;12.00;99.90;;;;;;4990512;28;20069;-38
2022/09/19 12:41:40;;;;;;;2.67;1.10;;;12.10;99.90;;;;;;4995258;28;20085;-38
2022/09/19 12:44:39;;;;;;;2.05;1.83;;;12.20;99.90;;;;;;4993021;28;20101;-38
2022/09/19 12:47:17;;;;;;;2.83;1.65;;;12.20;99.90;;;;;;4992784;28;20045;-38
2022/09/19 12:49:56;;;;;;;2.33;1.23;;;12.20;99.90;;;;;;4991687;28;20517;-39
2022/09/19 12:52:28;;;;;;;2.92;1.40;;;12.20;99.90;;;;;;4990860;28;20057;-39
2022/09/19 12:55:15;;;;;;;1.63;1.15;;;12.20;99.90;;;;;;4989450;28;20038;-38
2022/09/19 12:57:56;;;;;;;2.50;1.10;;;12.20;99.90;;;;;;4992162;28;20033;-32
2022/09/19 13:00:22;;;;;;;2.50;0.90;;;12.20;99.90;;;;;;4986950;28;20121;-34
2022/09/19 13:02:58;;;;;;;0.98;0.80;;;12.30;99.90;;;;;;4991934;28;20033;-38
2022/09/19 13:05:49;;;;;;;2.17;0.90;;;12.40;99.90;;;;;;4993139;28;20022;-37
2022/09/19 13:08:44;;;;;;;3.60;0.80;;;12.40;99.90;;;;;;4991174;28;20033;-34
2022/09/19 13:11:25;;;;;;;1.05;0.70;;;12.40;99.90;;;;;;4992058;28;20035;-32
2022/09/19 13:14:00;;;;;;;1.13;0.82;;;12.40;99.90;;;;;;4992763;28;20041;-38
2022/09/19 13:16:33;;;;;;;1.00;0.70;;;12.40;99.90;;;;;;4994328;28;20022;-36
2022/09/19 13:24:43;;;;;;;0.52;0.47;;;13.40;99.90;;;;;;4993772;28;20113;-33
2022/09/19 13:27:09;;;;;;;0.88;0.60;;;13.60;99.90;;;;;;4992948;28;20049;-38
2022/09/19 13:29:35;;;;;;;1.58;0.70;;;13.50;99.30;;;;;;4992461;28;20033;-36
2022/09/19 13:32:04;;;;;;;2.10;0.98;;;13.40;99.90;;;;;;4988956;28;20410;-38
2022/09/19 13:34:38;;;;;;;2.47;0.93;;;12.90;99.90;;;;;;4971644;28;20034;-39
2022/09/19 13:37:29;;;;;;;0.70;0.68;;;12.90;99.90;;;;;;4990851;28;20123;-37
2022/09/19 13:40:22;;;;;;;3.70;0.98;;;12.60;99.90;;;;;;4992495;28;20041;-38